Latest Weather Observations for Cobar Airport

IDN60801

Issued at 12:32 pm EST Wednesday 29 July 2015 (issued every 30 minutes, with the page automatically refreshed every 10 minutes)

About weather observations | Map of weather stations | Latest weather observations for NSW | Other Formats
Station Details ID: 048237 Name: COBAR AIRPORT AWS Lat: -31.54 Lon: 145.80 Height: 218.0 m
Data from the previous 72 hours. | See also: Recent months for locations in New South Wales
Date/Time
EST
Temp
°C
App
Temp
°C
Dew
Point
Rel
Hum
%
Delta-T
°C
Wind Press
QNH
hPa
Press
MSL
hPa
Rain
since 9 am
mm
Dir
 
Spd
km/h
Gust
km/h
Spd
kts
Gust
kts
29/12:30pm 13.1 9.5 3.2 51 4.4 N 11 17 6 9 1031.7 1032.0 0.0
29/12:00pm 13.1 9.2 3.2 51 4.4 NE 13 17 7 9 1032.2 1032.6 0.0
29/11:30am 12.2 9.6 3.2 54 4.0 N 6 9 3 5 1032.9 1033.3 0.0
29/11:00am 11.6 8.8 3.4 57 3.6 SE 7 13 4 7 1033.4 1033.8 0.0
29/10:30am 10.9 7.1 3.7 61 3.2 SE 13 19 7 10 1033.8 1034.2 0.0
29/10:00am 10.5 6.8 4.6 67 2.7 E 13 19 7 10 1033.5 1033.9 0.0
29/09:30am 8.5 7.4 5.1 79 1.5 CALM 0 0 0 0 1033.8 1034.2 0.0
29/09:00am 5.6 4.4 4.6 93 0.4 CALM 0 0 0 0 1033.8 1034.2 0.0
29/08:30am 3.6 2.2 3.3 98 0.1 CALM 0 0 0 0 1034.0 1034.3 0.0
29/08:00am 0.8 -1.1 0.5 98 0.1 CALM 0 0 0 0 1034.0 1034.3 0.0
29/07:30am -0.6 -2.7 -1.0 97 0.1 CALM 0 0 0 0 1033.6 1034.0 0.0
29/07:00am -1.4 -3.7 -2.0 96 0.1 CALM 0 0 0 0 1033.5 1033.9 0.0
29/06:30am -0.9 -3.1 -1.5 96 0.2 CALM 0 0 0 0 1033.4 1033.8 0.0
29/06:00am -0.8 -3.0 -1.4 96 0.2 CALM 0 0 0 0 1033.3 1033.7 0.0
29/05:30am -0.9 -3.1 -1.5 96 0.2 CALM 0 0 0 0 1033.1 1033.5 0.0
29/05:00am -0.2 -2.3 -0.8 96 0.2 CALM 0 0 0 0 1033.1 1033.5 0.0
29/04:30am -0.3 -2.4 -1.0 95 0.2 CALM 0 0 0 0 1033.2 1033.6 0.0
29/04:00am -0.3 -2.4 -1.0 95 0.2 CALM 0 0 0 0 1033.1 1033.5 0.0
29/03:30am 0.1 -2.0 -0.6 95 0.3 CALM 0 0 0 0 1033.2 1033.6 0.0
29/03:00am 0.4 -3.0 -0.3 95 0.3 NE 7 9 4 5 1033.0 1033.4 0.0
29/02:30am 0.9 -1.1 0.2 95 0.3 CALM 0 6 0 3 1033.1 1033.5 0.0
29/02:00am 0.6 -1.4 -0.3 94 0.3 CALM 0 0 0 0 1033.5 1033.9 0.0
29/01:30am 1.4 -0.5 0.5 94 0.3 CALM 0 0 0 0 1033.8 1034.2 0.0
29/01:00am 1.8 -0.1 0.6 92 0.4 CALM 0 0 0 0 1033.8 1034.2 0.0
29/12:30am 1.8 -0.2 0.2 89 0.6 CALM 0 0 0 0 1033.8 1034.2 0.0
29/12:00am 3.6 0.3 2.4 92 0.5 SE 9 13 5 7 1034.1 1034.4 0.0
 
Date/Time
EST
Temp
°C
App
Temp
°C
Dew
Point
Rel
Hum
%
Delta-T
°C
Wind Press
QNH
hPa
Press
MSL
hPa
Rain
since 9 am
mm
Dir
 
Spd
km/h
Gust
km/h
Spd
kts
Gust
kts
28/11:30pm 2.5 -0.4 1.3 92 0.5 SE 6 9 3 5 1034.7 1035.0 0.0
28/11:00pm 2.6 0.8 1.4 92 0.5 CALM 0 0 0 0 1034.7 1035.0 0.0
28/10:30pm 3.1 1.4 1.8 91 0.5 CALM 0 6 0 3 1034.5 1034.8 0.0
28/10:00pm 3.5 1.5 2.2 91 0.5 E 2 6 1 3 1034.2 1034.5 0.0
28/09:30pm 4.0 2.4 2.5 90 0.6 CALM 0 0 0 0 1034.3 1034.6 0.0
28/09:00pm 4.4 2.4 2.4 87 0.8 E 2 6 1 3 1034.2 1034.5 0.0
28/08:30pm 5.3 3.4 3.0 85 1.0 E 2 6 1 3 1034.2 1034.5 0.0
28/08:00pm 5.5 2.9 3.0 84 1.0 SSE 6 6 3 3 1034.2 1034.5 0.0
28/07:30pm 6.1 2.9 2.9 80 1.3 SSE 9 9 5 5 1034.1 1034.4 0.0
28/07:00pm 7.2 4.4 3.3 76 1.7 SSE 7 7 4 4 1033.8 1034.2 0.0
28/06:30pm 8.9 6.0 2.7 65 2.7 SSE 7 9 4 5 1033.6 1034.0 0.0
28/06:00pm 10.4 7.1 2.7 59 3.3 SSE 9 11 5 6 1033.5 1033.9 0.0
28/05:30pm 11.4 7.8 2.9 56 3.7 S 11 15 6 8 1033.3 1033.7 0.0
28/05:00pm 12.2 7.4 2.4 51 4.3 S 17 26 9 14 1033.4 1033.8 0.0
28/04:30pm 12.6 8.4 1.6 47 4.8 SSE 13 17 7 9 1033.1 1033.5 0.0
28/04:00pm 12.8 8.3 2.1 48 4.6 S 15 24 8 13 1033.0 1033.4 0.0
28/03:30pm 12.9 8.0 1.9 47 4.8 S 17 22 9 12 1033.3 1033.7 0.0
28/03:00pm 12.5 7.9 1.5 47 4.7 S 15 22 8 12 1033.2 1033.6 0.0
28/02:30pm 12.7 8.2 2.0 48 4.7 SSE 15 20 8 11 1033.4 1033.8 0.0
28/02:00pm 12.1 7.9 1.7 49 4.4 SSE 13 20 7 11 1033.7 1034.1 0.0
28/01:30pm 12.3 8.6 2.2 50 4.4 SSW 11 22 6 12 1034.2 1034.5 0.0
28/01:00pm 12.0 8.3 2.5 52 4.1 SE 11 20 6 11 1034.7 1035.0 0.0
28/12:30pm 11.5 6.7 2.8 55 3.8 S 17 26 9 14 1035.4 1035.7 0.0
28/12:00pm 11.5 6.8 3.3 57 3.6 S 17 22 9 12 1036.1 1036.5 0.0
28/11:30am 11.1 6.0 3.2 58 3.5 S 19 26 10 14 1036.8 1037.2 0.0
28/11:00am 10.2 5.5 3.0 61 3.1 S 17 26 9 14 1037.2 1037.6 0.0
28/10:30am 9.7 5.3 2.8 62 3.0 S 15 22 8 12 1037.2 1037.6 0.0
28/10:00am 8.6 4.6 2.8 67 2.5 S 13 17 7 9 1037.0 1037.4 0.0
28/09:30am 6.2 4.9 4.0 86 0.9 CALM 0 6 0 3 1036.8 1037.2 0.0
28/09:00am 4.1 1.9 3.1 93 0.4 WNW 4 9 2 5 1036.7 1037.1 0.0
28/08:30am 2.2 0.5 1.8 97 0.2 CALM 0 0 0 0 1036.4 1036.8 0.0
28/08:00am -0.3 -2.4 -0.6 98 0.1 CALM 0 0 0 0 1036.2 1036.6 0.0
28/07:30am -1.1 -3.3 -1.5 97 0.1 CALM 0 0 0 0 1036.1 1036.5 0.0
28/07:00am -1.5 -3.7 -1.9 97 0.1 CALM 0 0 0 0 1035.8 1036.1 0.0
28/06:30am -1.4 -3.7 -2.0 96 0.1 CALM 0 0 0 0 1035.4 1035.7 0.0
28/06:00am -1.1 -3.3 -1.5 97 0.1 CALM 0 0 0 0 1035.2 1035.5 0.0
28/05:30am -0.8 -3.0 -1.2 97 0.1 CALM 0 0 0 0 1035.0 1035.3 0.0
28/05:00am -0.6 -3.1 -1.0 97 0.1 NE 2 6 1 3 1034.8 1035.1 0.0
28/04:30am -0.7 -4.0 -1.3 96 0.2 NE 6 7 3 4 1034.7 1035.0 0.0
28/04:00am -0.3 -3.2 -0.9 96 0.2 NE 4 6 2 3 1034.6 1034.9 0.0
28/03:30am -0.4 -2.5 -1.0 96 0.2 CALM 0 0 0 0 1034.5 1034.8 0.0
28/03:00am -0.9 -3.1 -1.5 96 0.2 CALM 0 0 0 0 1034.5 1034.8 0.0
28/02:30am -0.4 -2.5 -1.1 95 0.2 CALM 0 0 0 0 1034.5 1034.8 0.0
28/02:00am 0.2 -1.9 -0.5 95 0.3 CALM 0 0 0 0 1034.6 1034.9 0.0
28/01:30am 0.5 -1.5 -0.2 95 0.3 CALM 0 4 0 2 1034.5 1034.8 0.0
28/01:00am 1.0 -2.1 0.1 94 0.3 NNE 6 7 3 4 1034.4 1034.7 0.0
28/12:30am 1.1 -0.9 0.2 94 0.3 CALM 0 0 0 0 1034.4 1034.7 0.0
28/12:00am 1.5 -1.2 0.5 93 0.4 S 4 7 2 4 1034.4 1034.7 0.0
 
Date/Time
EST
Temp
°C
App
Temp
°C
Dew
Point
Rel
Hum
%
Delta-T
°C
Wind Press
QNH
hPa
Press
MSL
hPa
Rain
since 9 am
mm
Dir
 
Spd
km/h
Gust
km/h
Spd
kts
Gust
kts
27/11:30pm 2.0 -1.0 1.0 93 0.4 S 6 7 3 4 1034.7 1035.0 0.0
27/11:00pm 2.4 0.6 1.1 91 0.5 CALM 0 0 0 0 1034.6 1034.9 0.0
27/10:30pm 2.9 1.1 1.3 89 0.6 CALM 0 0 0 0 1034.6 1034.9 0.0
27/10:00pm 3.0 1.2 1.1 87 0.7 CALM 0 0 0 0 1034.4 1034.7 0.0
27/09:30pm 3.3 0.2 1.5 88 0.7 SSW 7 9 4 5 1034.3 1034.6 0.0
27/09:00pm 3.6 1.9 1.8 88 0.7 CALM 0 0 0 0 1034.1 1034.4 0.0
27/08:30pm 3.7 1.9 1.4 85 0.9 CALM 0 0 0 0 1034.0 1034.3 0.0
27/08:00pm 5.2 3.5 1.7 78 1.4 CALM 0 0 0 0 1033.5 1033.9 0.0
27/07:30pm 6.0 2.9 1.2 71 1.9 S 7 9 4 5 1033.1 1033.5 0.0
27/07:00pm 6.4 3.3 1.3 70 2.0 SSW 7 9 4 5 1032.8 1033.2 0.0
27/06:30pm 7.1 3.2 1.2 66 2.4 SSW 11 11 6 6 1032.4 1032.8 0.0
27/06:00pm 8.8 4.5 0.8 57 3.2 SSW 13 15 7 8 1032.1 1032.5 0.0
27/05:30pm 9.6 4.5 0.5 53 3.7 S 17 24 9 13 1031.8 1032.1 0.0
27/05:00pm 10.6 5.8 0.1 48 4.3 SSW 15 19 8 10 1031.5 1031.8 0.0
27/04:30pm 10.9 5.0 -0.5 45 4.6 S 20 26 11 14 1031.1 1031.4 0.0
27/04:00pm 11.3 5.4 -1.1 42 4.9 SSW 20 28 11 15 1031.0 1031.3 0.0
27/03:30pm 11.5 5.6 -0.9 42 5.0 SSW 20 32 11 17 1030.8 1031.1 0.0
27/03:00pm 11.4 5.4 -1.4 41 5.1 SSW 20 28 11 15 1030.9 1031.2 0.0
27/02:30pm 11.3 5.7 -0.2 45 4.7 SSW 19 26 10 14 1031.0 1031.3 0.0
27/02:00pm 11.1 5.3 0.2 47 4.5 S 20 33 11 18 1031.1 1031.4 0.0
27/01:30pm 10.8 5.0 0.2 48 4.4 SSW 20 28 11 15 1031.4 1031.7 0.0
27/01:00pm 10.7 5.1 1.5 53 3.9 SSW 20 26 11 14 1031.6 1031.9 0.0
27/12:30pm 10.0 3.1 0.1 50 4.0 SW 26 35 14 19 1031.8 1032.1 0.0
27/12:00pm 10.5 4.6 1.6 54 3.7 SW 22 30 12 16 1032.2 1032.6 0.0
27/11:30am 10.0 4.8 2.6 60 3.2 SSW 19 26 10 14 1032.6 1033.0 0.0
27/11:00am 9.4 4.1 3.2 65 2.7 SSW 20 28 11 15 1032.7 1033.1 0.0
27/10:30am 8.6 3.3 3.2 69 2.3 SSW 20 30 11 16 1032.8 1033.2 0.0
27/10:00am 7.8 3.1 3.1 72 2.0 SSW 17 28 9 15 1032.7 1033.1 0.0
27/09:30am 6.8 2.0 2.7 75 1.7 SSW 17 24 9 13 1032.3 1032.7 0.0
27/09:00am 5.4 1.5 3.4 87 0.8 SW 13 17 7 9 1031.9 1032.2 0.0
27/08:30am 3.2 1.2 2.5 95 0.3 WSW 2 6 1 3 1031.6 1031.9 0.0
27/08:00am 2.4 0.7 2.1 98 0.1 CALM 0 0 0 0 1031.4 1031.7 0.0
27/07:30am 0.5 -1.5 0.1 97 0.1 CALM 0 0 0 0 1031.0 1031.3 0.0
27/07:00am 0.3 -1.7 -0.3 96 0.2 CALM 0 0 0 0 1030.5 1030.8 0.0
27/06:30am 0.7 -1.3 0.1 96 0.2 CALM 0 0 0 0 1030.0 1030.3 0.0
27/06:00am 0.8 -1.2 0.2 96 0.2 CALM 0 0 0 0 1029.7 1030.0 0.0
27/05:30am 1.3 -0.6 0.7 96 0.2 CALM 0 0 0 0 1029.3 1029.6 0.0
27/05:00am 1.5 -0.4 0.8 95 0.3 CALM 0 0 0 0 1028.9 1029.3 0.0
27/04:30am 1.7 -0.1 1.0 95 0.3 CALM 0 0 0 0 1028.7 1029.1 0.0
27/04:00am 2.4 0.7 1.7 95 0.3 CALM 0 0 0 0 1028.8 1029.2 0.0
27/03:30am 2.7 1.0 2.0 95 0.3 CALM 0 0 0 0 1028.7 1029.1 0.0
27/03:00am 2.7 1.0 2.0 95 0.3 CALM 0 0 0 0 1028.4 1028.8 0.0
27/02:30am 3.2 1.6 2.3 94 0.4 CALM 0 0 0 0 1028.1 1028.5 0.0
27/02:00am 3.7 1.0 2.5 92 0.5 SSW 6 7 3 4 1027.9 1028.2 0.0
27/01:30am 3.8 2.2 2.5 91 0.5 CALM 0 0 0 0 1027.7 1028.0 0.0
27/01:00am 4.6 3.1 2.8 88 0.7 CALM 0 0 0 0 1027.4 1027.7 0.0
27/12:30am 5.7 3.1 3.2 84 1.1 SSW 6 9 3 5 1027.3 1027.6 0.0
27/12:00am 6.6 3.5 3.6 81 1.3 SSW 9 9 5 5 1027.2 1027.5 0.0
 
Date/Time
EST
Temp
°C
App
Temp
°C
Dew
Point
Rel
Hum
%
Delta-T
°C
Wind Press
QNH
hPa
Press
MSL
hPa
Rain
since 9 am
mm
Dir
 
Spd
km/h
Gust
km/h
Spd
kts
Gust
kts
26/11:30pm 7.5 4.1 3.9 78 1.6 SSW 11 13 6 7 1027.0 1027.3 0.0
26/11:00pm 9.0 5.2 4.0 71 2.2 SSW 13 17 7 9 1027.0 1027.3 0.0
26/10:30pm 9.6 6.2 5.8 77 1.8 SSW 13 17 7 9 1026.9 1027.2 0.0
26/10:00pm 9.4 6.9 6.5 82 1.4 SW 9 13 5 7 1026.6 1026.9 0.0
26/09:30pm 9.7 7.3 6.8 82 1.4 SW 9 13 5 7 1026.6 1026.9 0.0
26/09:00pm 9.5 5.7 7.4 87 1.0 SSW 17 26 9 14 1026.4 1026.7 0.0
26/08:30pm 9.6 7.2 8.5 93 0.5 SSW 11 17 6 9 1026.1 1026.4 0.0
26/08:00pm 10.2 7.4 8.6 90 0.8 SSW 13 17 7 9 1025.5 1025.8 0.0
26/07:30pm 11.0 7.9 7.1 77 1.9 SW 13 17 7 9 1025.0 1025.3 0.0
26/07:00pm 11.6 8.0 6.9 73 2.3 SSW 15 22 8 12 1024.6 1024.9 0.0
26/06:30pm 12.2 7.6 5.8 65 3.0 SW 19 32 10 17 1023.9 1024.2 0.0
26/06:00pm 12.5 8.3 5.7 63 3.2 SW 17 24 9 13 1023.5 1023.8 0.0
26/05:30pm 12.7 8.8 5.4 61 3.4 WSW 15 20 8 11 1022.8 1023.1 0.0
26/05:00pm 13.0 8.4 5.4 60 3.6 SW 19 28 10 15 1022.6 1022.9 0.0
26/04:30pm 13.4 8.8 5.8 60 3.6 WSW 19 30 10 16 1022.0 1022.3 0.0
26/04:00pm 14.2 8.8 6.3 59 3.8 WSW 24 35 13 19 1021.6 1021.9 0.0
26/03:30pm 14.1 9.0 6.2 59 3.8 SW 22 32 12 17 1021.5 1021.8 0.0
26/03:00pm 14.5 10.0 7.1 61 3.6 SW 20 28 11 15 1021.2 1021.5 0.0
26/02:30pm 14.8 9.9 6.9 59 3.9 WSW 22 37 12 20 1021.2 1021.5 0.0
26/02:00pm 15.0 10.1 7.1 59 3.9 WSW 22 28 12 15 1021.2 1021.5 0.0
26/01:30pm 15.4 10.1 6.7 56 4.3 W 24 33 13 18 1021.0 1021.3 0.0
26/01:00pm 14.9 10.4 7.0 59 3.9 WSW 20 26 11 14 1021.1 1021.4 0.0

Other Formats:

Comma delimited format used in spreadsheet applications
http://www.bom.gov.au/fwo/IDN60801/IDN60801.94710.axf

JavaScript Object Notation format (JSON) in row-major order
http://www.bom.gov.au/fwo/IDN60801/IDN60801.94710.json